sensor_id;sensor_type;location;lat;lon;timestamp;temperature;humidity
30069;DHT22;16894;49.456;10.644;2023-06-10T00:02:35;13.60;99.90
30069;DHT22;16894;49.456;10.644;2023-06-10T00:05:19;13.60;99.90
30069;DHT22;16894;49.456;10.644;2023-06-10T00:08:06;13.60;99.90
30069;DHT22;16894;49.456;10.644;2023-06-10T00:10:54;13.60;99.90
30069;DHT22;16894;49.456;10.644;2023-06-10T00:13:39;13.50;99.90
30069;DHT22;16894;49.456;10.644;2023-06-10T00:16:24;13.60;99.90
30069;DHT22;16894;49.456;10.644;2023-06-10T00:19:08;13.50;99.90
30069;DHT22;16894;49.456;10.644;2023-06-10T00:21:54;13.50;99.90
30069;DHT22;16894;49.456;10.644;2023-06-10T00:24:38;13.40;99.90
30069;DHT22;16894;49.456;10.644;2023-06-10T00:27:24;13.40;99.90
30069;DHT22;16894;49.456;10.644;2023-06-10T00:30:10;13.30;99.90
30069;DHT22;16894;49.456;10.644;2023-06-10T00:32:55;13.10;99.90
30069;DHT22;16894;49.456;10.644;2023-06-10T00:35:39;13.00;99.90
30069;DHT22;16894;49.456;10.644;2023-06-10T00:38:24;13.00;99.90
30069;DHT22;16894;49.456;10.644;2023-06-10T00:41:08;12.90;99.90
30069;DHT22;16894;49.456;10.644;2023-06-10T00:43:52;12.90;99.90
30069;DHT22;16894;49.456;10.644;2023-06-10T00:46:37;13.00;99.90
30069;DHT22;16894;49.456;10.644;2023-06-10T00:49:21;12.90;99.90
30069;DHT22;16894;49.456;10.644;2023-06-10T00:52:06;13.00;99.90
30069;DHT22;16894;49.456;10.644;2023-06-10T00:54:52;13.00;99.90
30069;DHT22;16894;49.456;10.644;2023-06-10T00:57:37;13.00;99.90
30069;DHT22;16894;49.456;10.644;2023-06-10T01:00:21;13.10;99.90
30069;DHT22;16894;49.456;10.644;2023-06-10T01:03:06;12.90;99.90
30069;DHT22;16894;49.456;10.644;2023-06-10T01:06:32;12.90;99.90
30069;DHT22;16894;49.456;10.644;2023-06-10T01:12:38;12.80;99.90
30069;DHT22;16894;49.456;10.644;2023-06-10T01:15:23;12.70;99.90
30069;DHT22;16894;49.456;10.644;2023-06-10T01:18:09;12.50;99.90
30069;DHT22;16894;49.456;10.644;2023-06-10T01:20:53;12.50;99.90
30069;DHT22;16894;49.456;10.644;2023-06-10T01:23:37;12.60;99.90
30069;DHT22;16894;49.456;10.644;2023-06-10T01:26:25;12.60;99.90
30069;DHT22;16894;49.456;10.644;2023-06-10T01:29:43;12.60;99.90
30069;DHT22;16894;49.456;10.644;2023-06-10T01:32:38;12.60;99.90
30069;DHT22;16894;49.456;10.644;2023-06-10T01:35:25;12.70;99.90
30069;DHT22;16894;49.456;10.644;2023-06-10T01:38:14;12.60;99.90
30069;DHT22;16894;49.456;10.644;2023-06-10T01:41:00;12.50;99.90
30069;DHT22;16894;49.456;10.644;2023-06-10T01:43:46;12.20;99.90
30069;DHT22;16894;49.456;10.644;2023-06-10T01:46:30;12.10;99.90
30069;DHT22;16894;49.456;10.644;2023-06-10T01:49:14;12.20;99.90
30069;DHT22;16894;49.456;10.644;2023-06-10T01:51:59;12.20;99.90
30069;DHT22;16894;49.456;10.644;2023-06-10T01:54:43;12.20;99.90
30069;DHT22;16894;49.456;10.644;2023-06-10T01:57:27;12.10;99.90
30069;DHT22;16894;49.456;10.644;2023-06-10T02:00:12;12.10;99.90
30069;DHT22;16894;49.456;10.644;2023-06-10T02:02:57;12.20;99.90
30069;DHT22;16894;49.456;10.644;2023-06-10T02:05:41;12.20;99.90
30069;DHT22;16894;49.456;10.644;2023-06-10T02:08:25;12.20;99.90
30069;DHT22;16894;49.456;10.644;2023-06-10T02:11:11;12.20;99.90
30069;DHT22;16894;49.456;10.644;2023-06-10T02:13:55;12.20;99.90
30069;DHT22;16894;49.456;10.644;2023-06-10T02:16:39;12.20;99.90
30069;DHT22;16894;49.456;10.644;2023-06-10T02:19:24;12.20;99.90
30069;DHT22;16894;49.456;10.644;2023-06-10T02:22:11;12.20;99.90
30069;DHT22;16894;49.456;10.644;2023-06-10T02:24:55;12.10;99.90
30069;DHT22;16894;49.456;10.644;2023-06-10T02:27:39;12.10;99.90
30069;DHT22;16894;49.456;10.644;2023-06-10T02:30:23;11.90;99.90
30069;DHT22;16894;49.456;10.644;2023-06-10T02:33:08;11.80;99.90
30069;DHT22;16894;49.456;10.644;2023-06-10T02:35:56;11.70;99.90
30069;DHT22;16894;49.456;10.644;2023-06-10T02:38:40;11.60;99.90
30069;DHT22;16894;49.456;10.644;2023-06-10T02:41:24;11.60;99.90
30069;DHT22;16894;49.456;10.644;2023-06-10T02:44:09;11.60;99.90
30069;DHT22;16894;49.456;10.644;2023-06-10T02:46:53;11.50;99.90
30069;DHT22;16894;49.456;10.644;2023-06-10T02:49:37;11.50;99.90
30069;DHT22;16894;49.456;10.644;2023-06-10T02:52:21;11.50;99.90
30069;DHT22;16894;49.456;10.644;2023-06-10T02:55:05;11.40;99.90
30069;DHT22;16894;49.456;10.644;2023-06-10T02:57:50;11.40;99.90
30069;DHT22;16894;49.456;10.644;2023-06-10T03:00:34;11.40;99.90
30069;DHT22;16894;49.456;10.644;2023-06-10T03:03:19;11.30;99.90
30069;DHT22;16894;49.456;10.644;2023-06-10T03:06:04;11.30;99.90
30069;DHT22;16894;49.456;10.644;2023-06-10T03:08:48;11.30;99.90
30069;DHT22;16894;49.456;10.644;2023-06-10T03:11:33;11.30;99.90
30069;DHT22;16894;49.456;10.644;2023-06-10T03:14:17;11.20;99.90
30069;DHT22;16894;49.456;10.644;2023-06-10T03:17:01;11.30;99.90
30069;DHT22;16894;49.456;10.644;2023-06-10T03:19:47;11.30;99.90
30069;DHT22;16894;49.456;10.644;2023-06-10T03:22:31;11.40;99.90
30069;DHT22;16894;49.456;10.644;2023-06-10T03:25:15;11.50;99.90
30069;DHT22;16894;49.456;10.644;2023-06-10T03:27:59;11.50;99.90
30069;DHT22;16894;49.456;10.644;2023-06-10T03:30:43;11.60;99.90
30069;DHT22;16894;49.456;10.644;2023-06-10T03:33:28;11.60;99.90
30069;DHT22;16894;49.456;10.644;2023-06-10T03:36:12;11.60;99.90
30069;DHT22;16894;49.456;10.644;2023-06-10T03:38:56;11.70;99.90
30069;DHT22;16894;49.456;10.644;2023-06-10T03:41:41;11.60;99.90
30069;DHT22;16894;49.456;10.644;2023-06-10T03:44:25;11.60;99.90
30069;DHT22;16894;49.456;10.644;2023-06-10T03:47:10;11.50;99.90
30069;DHT22;16894;49.456;10.644;2023-06-10T03:49:54;11.60;99.90
30069;DHT22;16894;49.456;10.644;2023-06-10T03:52:38;11.60;99.90
30069;DHT22;16894;49.456;10.644;2023-06-10T03:55:23;11.60;99.90
30069;DHT22;16894;49.456;10.644;2023-06-10T03:58:07;11.60;99.90
30069;DHT22;16894;49.456;10.644;2023-06-10T04:00:52;11.60;99.90
30069;DHT22;16894;49.456;10.644;2023-06-10T04:03:36;11.60;99.90
30069;DHT22;16894;49.456;10.644;2023-06-10T04:06:21;11.60;99.90
30069;DHT22;16894;49.456;10.644;2023-06-10T04:09:09;11.40;99.90
30069;DHT22;16894;49.456;10.644;2023-06-10T04:11:54;11.30;99.90
30069;DHT22;16894;49.456;10.644;2023-06-10T04:14:38;11.30;99.90
30069;DHT22;16894;49.456;10.644;2023-06-10T04:17:23;11.40;99.90
30069;DHT22;16894;49.456;10.644;2023-06-10T04:20:08;11.50;99.90
30069;DHT22;16894;49.456;10.644;2023-06-10T04:22:53;11.40;99.90
30069;DHT22;16894;49.456;10.644;2023-06-10T04:25:37;11.60;99.90
30069;DHT22;16894;49.456;10.644;2023-06-10T04:28:21;11.60;99.90
30069;DHT22;16894;49.456;10.644;2023-06-10T04:31:06;11.70;99.90
30069;DHT22;16894;49.456;10.644;2023-06-10T04:33:50;11.80;99.90
30069;DHT22;16894;49.456;10.644;2023-06-10T04:36:34;11.80;99.90
30069;DHT22;16894;49.456;10.644;2023-06-10T04:39:18;11.80;99.90
30069;DHT22;16894;49.456;10.644;2023-06-10T04:42:04;11.80;99.90
30069;DHT22;16894;49.456;10.644;2023-06-10T04:44:49;11.90;99.90
30069;DHT22;16894;49.456;10.644;2023-06-10T04:47:33;11.80;99.90
30069;DHT22;16894;49.456;10.644;2023-06-10T04:50:17;12.00;99.90
30069;DHT22;16894;49.456;10.644;2023-06-10T04:53:02;12.00;99.90
30069;DHT22;16894;49.456;10.644;2023-06-10T04:55:46;12.10;99.90
30069;DHT22;16894;49.456;10.644;2023-06-10T04:58:30;12.10;99.90
30069;DHT22;16894;49.456;10.644;2023-06-10T05:01:15;12.20;99.90
30069;DHT22;16894;49.456;10.644;2023-06-10T05:04:00;12.30;99.90
30069;DHT22;16894;49.456;10.644;2023-06-10T05:06:43;12.50;99.90
30069;DHT22;16894;49.456;10.644;2023-06-10T05:09:28;12.60;99.90
30069;DHT22;16894;49.456;10.644;2023-06-10T05:12:12;12.70;99.90
30069;DHT22;16894;49.456;10.644;2023-06-10T05:14:56;12.80;99.90
30069;DHT22;16894;49.456;10.644;2023-06-10T05:17:40;12.80;99.90
30069;DHT22;16894;49.456;10.644;2023-06-10T05:20:25;12.90;99.90
30069;DHT22;16894;49.456;10.644;2023-06-10T05:23:09;13.00;99.90
30069;DHT22;16894;49.456;10.644;2023-06-10T05:25:54;13.20;99.90
30069;DHT22;16894;49.456;10.644;2023-06-10T05:28:38;13.30;99.90
30069;DHT22;16894;49.456;10.644;2023-06-10T05:31:22;13.50;99.90
30069;DHT22;16894;49.456;10.644;2023-06-10T05:34:07;13.60;99.90
30069;DHT22;16894;49.456;10.644;2023-06-10T05:36:51;13.70;99.90
30069;DHT22;16894;49.456;10.644;2023-06-10T05:39:36;13.80;99.90
30069;DHT22;16894;49.456;10.644;2023-06-10T05:42:21;13.90;99.90
30069;DHT22;16894;49.456;10.644;2023-06-10T05:45:06;14.00;99.90
30069;DHT22;16894;49.456;10.644;2023-06-10T05:47:51;14.10;99.90
30069;DHT22;16894;49.456;10.644;2023-06-10T05:50:35;14.30;99.90
30069;DHT22;16894;49.456;10.644;2023-06-10T05:53:22;14.40;99.90
30069;DHT22;16894;49.456;10.644;2023-06-10T05:56:07;14.50;99.90
30069;DHT22;16894;49.456;10.644;2023-06-10T05:58:51;14.60;99.90
30069;DHT22;16894;49.456;10.644;2023-06-10T06:01:35;14.70;99.90
30069;DHT22;16894;49.456;10.644;2023-06-10T06:04:19;14.80;99.90
30069;DHT22;16894;49.456;10.644;2023-06-10T06:07:04;14.90;99.90
30069;DHT22;16894;49.456;10.644;2023-06-10T06:09:49;15.00;99.90
30069;DHT22;16894;49.456;10.644;2023-06-10T06:12:33;15.10;99.90
30069;DHT22;16894;49.456;10.644;2023-06-10T06:15:17;15.20;99.90
30069;DHT22;16894;49.456;10.644;2023-06-10T06:18:01;15.40;99.90
30069;DHT22;16894;49.456;10.644;2023-06-10T06:20:45;15.50;99.90
30069;DHT22;16894;49.456;10.644;2023-06-10T06:23:30;15.60;99.90
30069;DHT22;16894;49.456;10.644;2023-06-10T06:26:15;15.80;99.90
30069;DHT22;16894;49.456;10.644;2023-06-10T06:28:59;16.00;99.90
30069;DHT22;16894;49.456;10.644;2023-06-10T06:31:43;16.20;99.90
30069;DHT22;16894;49.456;10.644;2023-06-10T06:34:27;16.40;99.90
30069;DHT22;16894;49.456;10.644;2023-06-10T06:37:11;16.50;99.90
30069;DHT22;16894;49.456;10.644;2023-06-10T06:39:57;16.70;99.90
30069;DHT22;16894;49.456;10.644;2023-06-10T06:42:42;16.90;99.90
30069;DHT22;16894;49.456;10.644;2023-06-10T06:45:26;17.10;99.90
30069;DHT22;16894;49.456;10.644;2023-06-10T06:48:11;17.20;99.90
30069;DHT22;16894;49.456;10.644;2023-06-10T06:50:55;17.40;99.90
30069;DHT22;16894;49.456;10.644;2023-06-10T06:53:40;17.60;99.90
30069;DHT22;16894;49.456;10.644;2023-06-10T06:56:31;17.70;99.90
30069;DHT22;16894;49.456;10.644;2023-06-10T06:59:16;17.90;99.90
30069;DHT22;16894;49.456;10.644;2023-06-10T07:02:03;18.10;99.90
30069;DHT22;16894;49.456;10.644;2023-06-10T07:04:47;18.30;99.90
30069;DHT22;16894;49.456;10.644;2023-06-10T07:07:33;18.40;99.90
30069;DHT22;16894;49.456;10.644;2023-06-10T07:10:17;18.50;99.90
30069;DHT22;16894;49.456;10.644;2023-06-10T07:13:02;18.60;99.90
30069;DHT22;16894;49.456;10.644;2023-06-10T07:15:46;18.80;99.90
30069;DHT22;16894;49.456;10.644;2023-06-10T07:18:31;18.90;99.90
30069;DHT22;16894;49.456;10.644;2023-06-10T07:21:15;19.00;99.90
30069;DHT22;16894;49.456;10.644;2023-06-10T07:24:00;19.20;99.90
30069;DHT22;16894;49.456;10.644;2023-06-10T07:26:44;19.40;99.90
30069;DHT22;16894;49.456;10.644;2023-06-10T07:29:28;19.50;99.90
30069;DHT22;16894;49.456;10.644;2023-06-10T07:32:12;19.70;99.90
30069;DHT22;16894;49.456;10.644;2023-06-10T07:34:56;19.90;99.90
30069;DHT22;16894;49.456;10.644;2023-06-10T07:37:40;20.00;99.90
30069;DHT22;16894;49.456;10.644;2023-06-10T07:40:24;20.10;99.90
30069;DHT22;16894;49.456;10.644;2023-06-10T07:43:09;20.20;99.90
30069;DHT22;16894;49.456;10.644;2023-06-10T07:45:54;20.40;99.90
30069;DHT22;16894;49.456;10.644;2023-06-10T07:48:38;20.50;99.90
30069;DHT22;16894;49.456;10.644;2023-06-10T07:51:22;20.60;99.90
30069;DHT22;16894;49.456;10.644;2023-06-10T07:54:06;20.80;99.90
30069;DHT22;16894;49.456;10.644;2023-06-10T07:56:51;20.90;99.90
30069;DHT22;16894;49.456;10.644;2023-06-10T07:59:37;21.00;99.90
30069;DHT22;16894;49.456;10.644;2023-06-10T08:02:21;21.10;99.90
30069;DHT22;16894;49.456;10.644;2023-06-10T08:05:05;21.30;99.90
30069;DHT22;16894;49.456;10.644;2023-06-10T08:07:50;21.40;99.90
30069;DHT22;16894;49.456;10.644;2023-06-10T08:10:34;21.60;99.90
30069;DHT22;16894;49.456;10.644;2023-06-10T08:13:19;21.80;99.90
30069;DHT22;16894;49.456;10.644;2023-06-10T08:16:04;21.90;99.90
30069;DHT22;16894;49.456;10.644;2023-06-10T08:18:48;22.10;99.50
30069;DHT22;16894;49.456;10.644;2023-06-10T08:21:35;22.40;99.00
30069;DHT22;16894;49.456;10.644;2023-06-10T08:24:20;22.50;98.50
30069;DHT22;16894;49.456;10.644;2023-06-10T08:27:05;22.60;98.10
30069;DHT22;16894;49.456;10.644;2023-06-10T08:29:50;22.70;97.70
30069;DHT22;16894;49.456;10.644;2023-06-10T08:32:34;22.90;97.90
30069;DHT22;16894;49.456;10.644;2023-06-10T08:35:18;23.20;97.30
30069;DHT22;16894;49.456;10.644;2023-06-10T08:38:03;23.50;96.10
30069;DHT22;16894;49.456;10.644;2023-06-10T08:40:47;23.40;96.00
30069;DHT22;16894;49.456;10.644;2023-06-10T08:43:39;23.40;95.90
30069;DHT22;16894;49.456;10.644;2023-06-10T08:46:28;23.70;95.90
30069;DHT22;16894;49.456;10.644;2023-06-10T08:49:18;23.70;95.40
30069;DHT22;16894;49.456;10.644;2023-06-10T08:52:06;24.10;95.10
30069;DHT22;16894;49.456;10.644;2023-06-10T08:54:59;24.40;94.80
30069;DHT22;16894;49.456;10.644;2023-06-10T08:57:46;24.60;93.90
30069;DHT22;16894;49.456;10.644;2023-06-10T09:00:32;24.80;94.10
30069;DHT22;16894;49.456;10.644;2023-06-10T09:03:16;25.30;92.80
30069;DHT22;16894;49.456;10.644;2023-06-10T09:06:03;25.20;92.90
30069;DHT22;16894;49.456;10.644;2023-06-10T09:08:48;25.30;91.80
30069;DHT22;16894;49.456;10.644;2023-06-10T09:11:32;25.60;91.60
30069;DHT22;16894;49.456;10.644;2023-06-10T09:14:17;25.40;91.80
30069;DHT22;16894;49.456;10.644;2023-06-10T09:17:02;25.40;91.40
30069;DHT22;16894;49.456;10.644;2023-06-10T09:19:47;25.70;91.10
30069;DHT22;16894;49.456;10.644;2023-06-10T09:22:33;25.90;91.20
30069;DHT22;16894;49.456;10.644;2023-06-10T09:25:17;26.00;90.40
30069;DHT22;16894;49.456;10.644;2023-06-10T09:28:01;25.90;90.80
30069;DHT22;16894;49.456;10.644;2023-06-10T09:30:46;26.40;90.60
30069;DHT22;16894;49.456;10.644;2023-06-10T09:33:31;26.80;89.40
30069;DHT22;16894;49.456;10.644;2023-06-10T09:36:22;26.90;89.40
30069;DHT22;16894;49.456;10.644;2023-06-10T09:39:19;26.80;87.50
30069;DHT22;16894;49.456;10.644;2023-06-10T09:42:18;27.10;86.00
30069;DHT22;16894;49.456;10.644;2023-06-10T09:45:04;27.30;87.10
30069;DHT22;16894;49.456;10.644;2023-06-10T09:47:52;27.60;84.50
30069;DHT22;16894;49.456;10.644;2023-06-10T09:50:42;27.90;84.40
30069;DHT22;16894;49.456;10.644;2023-06-10T09:53:28;28.50;83.60
30069;DHT22;16894;49.456;10.644;2023-06-10T09:56:14;29.40;81.60
30069;DHT22;16894;49.456;10.644;2023-06-10T09:58:58;29.50;78.80
30069;DHT22;16894;49.456;10.644;2023-06-10T10:01:42;28.60;80.60
30069;DHT22;16894;49.456;10.644;2023-06-10T10:04:27;28.50;78.90
30069;DHT22;16894;49.456;10.644;2023-06-10T10:07:13;28.50;80.20
30069;DHT22;16894;49.456;10.644;2023-06-10T10:09:57;28.50;80.70
30069;DHT22;16894;49.456;10.644;2023-06-10T10:12:42;28.30;79.60
30069;DHT22;16894;49.456;10.644;2023-06-10T10:15:29;27.60;79.30
30069;DHT22;16894;49.456;10.644;2023-06-10T10:18:18;27.80;79.90
30069;DHT22;16894;49.456;10.644;2023-06-10T10:21:07;28.30;78.80
30069;DHT22;16894;49.456;10.644;2023-06-10T10:24:09;28.00;79.30
30069;DHT22;16894;49.456;10.644;2023-06-10T10:26:58;27.80;78.30
30069;DHT22;16894;49.456;10.644;2023-06-10T10:29:50;27.80;78.20
30069;DHT22;16894;49.456;10.644;2023-06-10T10:32:40;27.70;78.80
30069;DHT22;16894;49.456;10.644;2023-06-10T10:35:27;28.80;77.60
30069;DHT22;16894;49.456;10.644;2023-06-10T10:38:11;29.50;77.20
30069;DHT22;16894;49.456;10.644;2023-06-10T10:40:56;29.80;73.90
30069;DHT22;16894;49.456;10.644;2023-06-10T10:43:44;29.00;74.60
30069;DHT22;16894;49.456;10.644;2023-06-10T10:46:30;29.20;75.20
30069;DHT22;16894;49.456;10.644;2023-06-10T10:49:14;29.10;74.00
30069;DHT22;16894;49.456;10.644;2023-06-10T10:52:00;29.20;74.80
30069;DHT22;16894;49.456;10.644;2023-06-10T10:54:46;29.80;72.90
30069;DHT22;16894;49.456;10.644;2023-06-10T10:57:31;30.80;71.90
30069;DHT22;16894;49.456;10.644;2023-06-10T11:00:34;31.50;71.10
30069;DHT22;16894;49.456;10.644;2023-06-10T11:03:19;30.80;69.00
30069;DHT22;16894;49.456;10.644;2023-06-10T11:06:12;29.80;69.60
30069;DHT22;16894;49.456;10.644;2023-06-10T11:08:57;29.40;71.10
30069;DHT22;16894;49.456;10.644;2023-06-10T11:11:49;29.60;70.90
30069;DHT22;16894;49.456;10.644;2023-06-10T11:14:35;29.80;71.60
30069;DHT22;16894;49.456;10.644;2023-06-10T11:17:20;30.00;70.40
30069;DHT22;16894;49.456;10.644;2023-06-10T11:20:04;29.70;69.80
30069;DHT22;16894;49.456;10.644;2023-06-10T11:22:59;29.50;70.60
30069;DHT22;16894;49.456;10.644;2023-06-10T11:25:44;29.30;71.10
30069;DHT22;16894;49.456;10.644;2023-06-10T11:28:30;29.60;70.90
30069;DHT22;16894;49.456;10.644;2023-06-10T11:31:22;30.20;69.80
30069;DHT22;16894;49.456;10.644;2023-06-10T11:34:07;30.20;69.00
30069;DHT22;16894;49.456;10.644;2023-06-10T11:36:52;29.50;69.60
30069;DHT22;16894;49.456;10.644;2023-06-10T11:39:37;29.10;70.00
30069;DHT22;16894;49.456;10.644;2023-06-10T11:42:24;29.40;68.10
30069;DHT22;16894;49.456;10.644;2023-06-10T11:45:09;29.30;69.70
30069;DHT22;16894;49.456;10.644;2023-06-10T11:48:00;30.00;70.30
30069;DHT22;16894;49.456;10.644;2023-06-10T11:50:45;30.70;68.20
30069;DHT22;16894;49.456;10.644;2023-06-10T11:53:29;31.20;67.30
30069;DHT22;16894;49.456;10.644;2023-06-10T11:56:19;31.00;67.20
30069;DHT22;16894;49.456;10.644;2023-06-10T11:59:05;31.20;68.20
30069;DHT22;16894;49.456;10.644;2023-06-10T12:01:51;31.30;66.70
30069;DHT22;16894;49.456;10.644;2023-06-10T12:04:36;31.20;66.30
30069;DHT22;16894;49.456;10.644;2023-06-10T12:07:21;32.20;66.60
30069;DHT22;16894;49.456;10.644;2023-06-10T12:10:07;32.60;65.80
30069;DHT22;16894;49.456;10.644;2023-06-10T12:12:51;32.00;65.20
30069;DHT22;16894;49.456;10.644;2023-06-10T12:15:35;30.80;66.20
30069;DHT22;16894;49.456;10.644;2023-06-10T12:18:23;29.90;67.30
30069;DHT22;16894;49.456;10.644;2023-06-10T12:21:18;29.90;68.30
30069;DHT22;16894;49.456;10.644;2023-06-10T12:24:10;31.10;67.70
30069;DHT22;16894;49.456;10.644;2023-06-10T12:26:55;31.30;67.20
30069;DHT22;16894;49.456;10.644;2023-06-10T12:29:39;31.00;66.50
30069;DHT22;16894;49.456;10.644;2023-06-10T12:32:45;30.60;66.50
30069;DHT22;16894;49.456;10.644;2023-06-10T12:35:30;30.30;67.30
30069;DHT22;16894;49.456;10.644;2023-06-10T12:38:24;30.60;68.80
30069;DHT22;16894;49.456;10.644;2023-06-10T12:41:10;31.50;67.10
30069;DHT22;16894;49.456;10.644;2023-06-10T12:43:55;31.30;66.80
30069;DHT22;16894;49.456;10.644;2023-06-10T12:46:40;31.80;65.40
30069;DHT22;16894;49.456;10.644;2023-06-10T12:49:24;32.20;65.60
30069;DHT22;16894;49.456;10.644;2023-06-10T12:52:10;33.00;64.80
30069;DHT22;16894;49.456;10.644;2023-06-10T12:54:55;33.30;64.10
30069;DHT22;16894;49.456;10.644;2023-06-10T12:57:48;34.20;63.20
30069;DHT22;16894;49.456;10.644;2023-06-10T13:00:32;34.80;61.90
30069;DHT22;16894;49.456;10.644;2023-06-10T13:03:18;35.00;60.50
30069;DHT22;16894;49.456;10.644;2023-06-10T13:06:03;35.00;60.50
30069;DHT22;16894;49.456;10.644;2023-06-10T13:08:47;35.30;61.00
30069;DHT22;16894;49.456;10.644;2023-06-10T13:11:31;36.50;57.90
30069;DHT22;16894;49.456;10.644;2023-06-10T13:14:15;36.60;58.10
30069;DHT22;16894;49.456;10.644;2023-06-10T13:17:00;36.30;58.60
30069;DHT22;16894;49.456;10.644;2023-06-10T13:19:44;36.20;57.20
30069;DHT22;16894;49.456;10.644;2023-06-10T13:22:28;35.00;58.80
30069;DHT22;16894;49.456;10.644;2023-06-10T13:25:13;35.80;57.20
30069;DHT22;16894;49.456;10.644;2023-06-10T13:27:57;36.50;56.70
30069;DHT22;16894;49.456;10.644;2023-06-10T13:30:41;36.40;55.70
30069;DHT22;16894;49.456;10.644;2023-06-10T13:33:25;35.60;56.50
30069;DHT22;16894;49.456;10.644;2023-06-10T13:36:10;34.60;56.60
30069;DHT22;16894;49.456;10.644;2023-06-10T13:38:54;34.20;56.30
30069;DHT22;16894;49.456;10.644;2023-06-10T13:41:40;34.10;56.90
30069;DHT22;16894;49.456;10.644;2023-06-10T13:44:25;34.50;57.30
30069;DHT22;16894;49.456;10.644;2023-06-10T13:47:10;35.40;55.50
30069;DHT22;16894;49.456;10.644;2023-06-10T13:49:54;36.50;55.50
30069;DHT22;16894;49.456;10.644;2023-06-10T13:52:38;36.60;54.60
30069;DHT22;16894;49.456;10.644;2023-06-10T13:55:22;36.80;54.20
30069;DHT22;16894;49.456;10.644;2023-06-10T13:58:08;35.00;55.30
30069;DHT22;16894;49.456;10.644;2023-06-10T14:00:52;33.60;56.90
30069;DHT22;16894;49.456;10.644;2023-06-10T14:03:37;33.40;57.40
30069;DHT22;16894;49.456;10.644;2023-06-10T14:06:21;33.00;57.50
30069;DHT22;16894;49.456;10.644;2023-06-10T14:09:06;32.40;58.50
30069;DHT22;16894;49.456;10.644;2023-06-10T14:11:50;31.60;59.60
30069;DHT22;16894;49.456;10.644;2023-06-10T14:14:35;31.00;60.20
30069;DHT22;16894;49.456;10.644;2023-06-10T14:17:20;30.40;61.60
30069;DHT22;16894;49.456;10.644;2023-06-10T14:20:05;30.30;62.00
30069;DHT22;16894;49.456;10.644;2023-06-10T14:22:49;30.90;61.50
30069;DHT22;16894;49.456;10.644;2023-06-10T14:25:34;31.50;61.50
30069;DHT22;16894;49.456;10.644;2023-06-10T14:28:18;32.40;58.90
30069;DHT22;16894;49.456;10.644;2023-06-10T14:31:02;32.20;59.60
30069;DHT22;16894;49.456;10.644;2023-06-10T14:33:46;32.50;59.80
30069;DHT22;16894;49.456;10.644;2023-06-10T14:36:30;33.50;58.90
30069;DHT22;16894;49.456;10.644;2023-06-10T14:39:14;34.50;56.10
30069;DHT22;16894;49.456;10.644;2023-06-10T14:41:59;35.50;54.60
30069;DHT22;16894;49.456;10.644;2023-06-10T14:44:43;36.80;54.50
30069;DHT22;16894;49.456;10.644;2023-06-10T14:47:27;37.50;52.30
30069;DHT22;16894;49.456;10.644;2023-06-10T14:50:11;37.70;52.50
30069;DHT22;16894;49.456;10.644;2023-06-10T14:52:55;35.60;54.30
30069;DHT22;16894;49.456;10.644;2023-06-10T14:55:39;34.00;55.60
30069;DHT22;16894;49.456;10.644;2023-06-10T14:58:24;32.70;57.10
30069;DHT22;16894;49.456;10.644;2023-06-10T15:01:08;31.60;59.00
30069;DHT22;16894;49.456;10.644;2023-06-10T15:03:52;30.20;61.60
30069;DHT22;16894;49.456;10.644;2023-06-10T15:06:36;28.90;64.40
30069;DHT22;16894;49.456;10.644;2023-06-10T15:09:20;28.00;66.40
30069;DHT22;16894;49.456;10.644;2023-06-10T15:12:05;27.10;68.80
30069;DHT22;16894;49.456;10.644;2023-06-10T15:14:49;26.60;70.60
30069;DHT22;16894;49.456;10.644;2023-06-10T15:17:33;26.30;71.90
30069;DHT22;16894;49.456;10.644;2023-06-10T15:20:17;25.80;72.30
30069;DHT22;16894;49.456;10.644;2023-06-10T15:23:02;25.90;72.50
30069;DHT22;16894;49.456;10.644;2023-06-10T15:25:46;26.10;72.30
30069;DHT22;16894;49.456;10.644;2023-06-10T15:28:31;26.30;71.80
30069;DHT22;16894;49.456;10.644;2023-06-10T15:31:14;26.30;71.00
30069;DHT22;16894;49.456;10.644;2023-06-10T15:33:59;26.50;70.30
30069;DHT22;16894;49.456;10.644;2023-06-10T15:36:44;26.80;70.50
30069;DHT22;16894;49.456;10.644;2023-06-10T15:39:28;26.80;70.30
30069;DHT22;16894;49.456;10.644;2023-06-10T15:42:14;26.60;70.80
30069;DHT22;16894;49.456;10.644;2023-06-10T15:44:58;26.70;69.90
30069;DHT22;16894;49.456;10.644;2023-06-10T15:47:42;26.70;69.80
30069;DHT22;16894;49.456;10.644;2023-06-10T15:50:27;26.80;69.90
30069;DHT22;16894;49.456;10.644;2023-06-10T15:53:11;26.90;69.40
30069;DHT22;16894;49.456;10.644;2023-06-10T15:55:55;26.80;68.10
30069;DHT22;16894;49.456;10.644;2023-06-10T15:58:40;27.00;68.90
30069;DHT22;16894;49.456;10.644;2023-06-10T16:01:24;27.40;69.00
30069;DHT22;16894;49.456;10.644;2023-06-10T16:04:09;27.70;68.20
30069;DHT22;16894;49.456;10.644;2023-06-10T16:06:53;28.00;67.90
30069;DHT22;16894;49.456;10.644;2023-06-10T16:09:38;28.10;67.10
30069;DHT22;16894;49.456;10.644;2023-06-10T16:12:23;28.20;67.60
30069;DHT22;16894;49.456;10.644;2023-06-10T16:15:07;28.20;68.10
30069;DHT22;16894;49.456;10.644;2023-06-10T16:17:51;27.60;69.20
30069;DHT22;16894;49.456;10.644;2023-06-10T16:20:35;27.00;70.40
30069;DHT22;16894;49.456;10.644;2023-06-10T16:23:20;26.60;72.10
30069;DHT22;16894;49.456;10.644;2023-06-10T16:26:04;26.20;73.40
30069;DHT22;16894;49.456;10.644;2023-06-10T16:28:49;26.00;74.00
30069;DHT22;16894;49.456;10.644;2023-06-10T16:31:33;25.80;74.10
30069;DHT22;16894;49.456;10.644;2023-06-10T16:34:18;25.80;74.80
30069;DHT22;16894;49.456;10.644;2023-06-10T16:37:02;26.10;75.10
30069;DHT22;16894;49.456;10.644;2023-06-10T16:39:47;26.30;75.10
30069;DHT22;16894;49.456;10.644;2023-06-10T16:42:31;26.60;74.40
30069;DHT22;16894;49.456;10.644;2023-06-10T16:45:16;27.00;73.90
30069;DHT22;16894;49.456;10.644;2023-06-10T16:48:00;27.40;73.30
30069;DHT22;16894;49.456;10.644;2023-06-10T16:50:44;27.70;73.20
30069;DHT22;16894;49.456;10.644;2023-06-10T16:53:29;27.80;72.20
30069;DHT22;16894;49.456;10.644;2023-06-10T16:56:13;27.70;72.00
30069;DHT22;16894;49.456;10.644;2023-06-10T16:58:58;27.60;71.70
30069;DHT22;16894;49.456;10.644;2023-06-10T17:01:42;27.40;72.20
30069;DHT22;16894;49.456;10.644;2023-06-10T17:04:26;27.30;72.20
30069;DHT22;16894;49.456;10.644;2023-06-10T17:07:10;27.20;73.00
30069;DHT22;16894;49.456;10.644;2023-06-10T17:09:55;27.10;73.40
30069;DHT22;16894;49.456;10.644;2023-06-10T17:12:39;26.90;73.90